Hlavní strana
METAR-TAF:

METAR-TAF

Letiště :

Orsk, Rusko

zeměpisná šířka: 51-04-18N, zeměpisná délka: 058-35-48E, výška: 277 m

Aktuální stav počasí

Zpráva byla vytvořena před 59 minutami, v 12:00 UTC
Západní vítr 14 kt
Teplota 17°C
Vlhkost vzduchu 27%
Tlak 1016 hPa
Viditelnost 10 km a více
Oblačno až skoro zataženo ve výšce 4900 ft

METAR: UWOR 231200Z 28007MPS 9999 BKN049 17/M02 Q1016 R25/CLRD65 NOSIG RMK QFE738/0984

Čas: 17:59 (12:59 UTC)

Předpověď počasí

Zpráva byla vytvořena před 2 hodinami a 1 minutami, v 10:58 UTC
Předpověď platná od 23 v 12 UTC do 23 v 21 UTC
Západní vítr 10 kt s nárazy do 19 kt
Viditelnost 10 km a více
Oblačno až skoro zataženo ve výšce 1500 ft
Dočasný
od 23 v 12 UTC do 23 v 21 UTC
Severozápadní vítr 12 kt s nárazy do 23 kt
Viditelnost: 3100 m
Oblačno až skoro zataženo ve výšce 1100 ft
slabý déšť, kouřmo

TAF: UWOR 231058Z 2312/2321 27005G10MPS 9999 BKN015 TEMPO 2312/2321 31006G12MPS 3100 -RA BR BKN011

Stav a předpovědi počasí z více než 4 000 letišť (zprávy METAR a TAF).

Červené a žluté tečky na mapě představují dostupné meteorologické stanice.

Když kurzor umístíte na tečku, zobrazí se název stanice.

Pak kliknutím zobrazíte stav a předpověď počasí.

Chcete-li změnit mapu, kliknutím na zelené tlačítko se znaménkem +mapu přiblížíte, kliknutím na zelené tlačítko se znaménkem – mapu oddálíte a kliknutím na zelené šipky přejdete na sousední mapy.


METAR-TAF: